Mississippi Enterprise — WDE2542 — position and weather

sailwx.info

Track history (hours):
 
Tides and Currents Weather Stations Pressure Air Temp Water Temp Dewpoint Dewpoint Depression Visibility Wind Speed Wind Dir Waves Ship Positions

Mississippi Enterprise

Owner: U.S. United Ocean Services, LLC, Tampa, FL. More information available from US FCC via Universal Licensing System and Coast Guard Vessel Documentation Center.

Last reported at 2015-Apr-19 02:30 UTC. Time now 2015-Apr-19 03:06 UTC.
Position N 27°38' W 082°34'.

Length 187 m; draft 10.3 m.

Type: Cargo ship. MMSI: 369813000.

Date/timePositionNaut miles runAvg speedWind from/ knotsBaromVisibWave heightAir tempDewpointWater temp
2015-Apr-19 02:30N 27°38' W 082°34'0 0.0
2015-Apr-19 01:33N 27°38' W 082°34'27 2.7
2015-Apr-18 15:33N 27°35' W 083°04'1 1.1
2015-Apr-18 14:19N 27°35' W 083°05'2412.5
2015-Apr-18 12:26N 27°40' W 083°31'1513.9
2015-Apr-18 11:23N 27°43' W 083°48'  
2015-Apr-14 14:22N 27°40' W 083°03'1214.0
2015-Apr-14 13:31N 27°41' W 083°16'1514.0
2015-Apr-14 12:28N 27°43' W 083°33'  
2015-Apr-11 17:12N 27°42' W 082°33'812.5
2015-Apr-11 16:34N 27°48' W 082°28'3 2.8
2015-Apr-11 15:31N 27°48' W 082°25'0 0.0
2015-Apr-11 14:31N 27°48' W 082°25'0 0.0
2015-Apr-11 13:31N 27°48' W 082°25'0 0.0
2015-Apr-11 12:31N 27°48' W 082°25'0 0.0
2015-Apr-11 11:31N 27°48' W 082°25'0 0.0
2015-Apr-11 10:28N 27°48' W 082°25'0 0.0
2015-Apr-11 09:31N 27°48' W 082°25'0 0.0
2015-Apr-11 08:25N 27°48' W 082°25'0 0.0
2015-Apr-11 07:31N 27°48' W 082°25'0 0.0
2015-Apr-11 06:31N 27°48' W 082°25'0 0.0
2015-Apr-11 05:31N 27°48' W 082°25'0 0.0
2015-Apr-11 04:22N 27°48' W 082°25'0 0.0
2015-Apr-11 03:31N 27°48' W 082°25'0 0.0
2015-Apr-11 02:31N 27°48' W 082°25'0 0.0
2015-Apr-11 01:31N 27°48' W 082°25'0 0.0
2015-Apr-11 00:31N 27°48' W 082°25'0 0.0
2015-Apr-10 23:28N 27°48' W 082°25'0 0.0
2015-Apr-10 22:31N 27°48' W 082°25'0 0.0
2015-Apr-10 21:31N 27°48' W 082°25'0 0.0
2015-Apr-10 20:31N 27°48' W 082°25'0 0.0
2015-Apr-10 19:31N 27°48' W 082°25'0 0.0
2015-Apr-10 18:28N 27°48' W 082°25'0 0.0
2015-Apr-10 17:28N 27°48' W 082°25'0 0.0
2015-Apr-10 16:31N 27°48' W 082°25'0 0.0
2015-Apr-10 15:28N 27°48' W 082°25'0 0.0
2015-Apr-10 14:28N 27°48' W 082°25'0 0.0
2015-Apr-10 13:28N 27°48' W 082°25'0 0.0
2015-Apr-10 12:31N 27°48' W 082°25'0 0.0
2015-Apr-10 11:31N 27°48' W 082°25'0 0.0
2015-Apr-10 10:31N 27°48' W 082°25'0 0.0
2015-Apr-10 09:31N 27°48' W 082°25'0 0.0
2015-Apr-10 08:28N 27°48' W 082°25'0 0.0
2015-Apr-10 07:28N 27°48' W 082°25'0 0.0
2015-Apr-10 06:28N 27°48' W 082°25'0 0.0
2015-Apr-10 05:31N 27°48' W 082°25'0 0.0
2015-Apr-10 04:31N 27°48' W 082°25'0 0.0
2015-Apr-10 03:31N 27°48' W 082°25'0 0.0
2015-Apr-10 02:22N 27°48' W 082°25'0 0.0
2015-Apr-10 01:31N 27°48' W 082°25'0 0.0
2015-Apr-10 00:31N 27°48' W 082°25'0 0.0
2015-Apr-09 23:28N 27°48' W 082°25'0 0.0
2015-Apr-09 22:31N 27°48' W 082°25'0 0.0
2015-Apr-09 21:28N 27°48' W 082°25'0 0.0
2015-Apr-09 20:28N 27°48' W 082°25'0 0.0
2015-Apr-09 19:22N 27°48' W 082°25'1 0.8
2015-Apr-09 18:33N 27°48' W 082°25'8 7.9
2015-Apr-09 17:33N 27°44' W 082°32'23 4.4
2015-Apr-09 12:26N 27°37' W 082°56'0 0.0
2015-Apr-09 11:05N 27°37' W 082°56'0 0.0
2015-Apr-09 10:29N 27°37' W 082°56'0 0.0
2015-Apr-09 09:14N 27°37' W 082°56'0 0.0
2015-Apr-09 08:08N 27°37' W 082°56'0 0.0
2015-Apr-09 07:11N 27°37' W 082°56'  
Track history (hours):
 
Tides and Currents Weather Stations Pressure Air Temp Water Temp Dewpoint Dewpoint Depression Visibility Wind Speed Wind Dir Waves Ship Positions

Mississippi Enterprise

Owner: U.S. United Ocean Services, LLC, Tampa, FL. More information available from US FCC via Universal Licensing System and Coast Guard Vessel Documentation Center.

Last reported at 2015-Apr-19 02:30 UTC. Time now 2015-Apr-19 03:06 UTC.
Position N 27°38' W 082°34'.

Length 187 m; draft 10.3 m.

Type: Cargo ship. MMSI: 369813000.

Date/timePositionNaut miles runAvg speedWind from/ knotsBaromVisibWave heightAir tempDewpointWater temp
2015-Apr-19 02:30N 27°38' W 082°34'0 0.0
2015-Apr-19 01:33N 27°38' W 082°34'27 2.7
2015-Apr-18 15:33N 27°35' W 083°04'1 1.1
2015-Apr-18 14:19N 27°35' W 083°05'2412.5
2015-Apr-18 12:26N 27°40' W 083°31'1513.9
2015-Apr-18 11:23N 27°43' W 083°48'  
2015-Apr-14 14:22N 27°40' W 083°03'1214.0
2015-Apr-14 13:31N 27°41' W 083°16'1514.0
2015-Apr-14 12:28N 27°43' W 083°33'  
2015-Apr-11 17:12N 27°42' W 082°33'812.5
2015-Apr-11 16:34N 27°48' W 082°28'3 2.8
2015-Apr-11 15:31N 27°48' W 082°25'0 0.0
2015-Apr-11 14:31N 27°48' W 082°25'0 0.0
2015-Apr-11 13:31N 27°48' W 082°25'0 0.0
2015-Apr-11 12:31N 27°48' W 082°25'0 0.0
2015-Apr-11 11:31N 27°48' W 082°25'0 0.0
2015-Apr-11 10:28N 27°48' W 082°25'0 0.0
2015-Apr-11 09:31N 27°48' W 082°25'0 0.0
2015-Apr-11 08:25N 27°48' W 082°25'0 0.0
2015-Apr-11 07:31N 27°48' W 082°25'0 0.0
2015-Apr-11 06:31N 27°48' W 082°25'0 0.0
2015-Apr-11 05:31N 27°48' W 082°25'0 0.0
2015-Apr-11 04:22N 27°48' W 082°25'0 0.0
2015-Apr-11 03:31N 27°48' W 082°25'0 0.0
2015-Apr-11 02:31N 27°48' W 082°25'0 0.0
2015-Apr-11 01:31N 27°48' W 082°25'0 0.0
2015-Apr-11 00:31N 27°48' W 082°25'0 0.0
2015-Apr-10 23:28N 27°48' W 082°25'0 0.0
2015-Apr-10 22:31N 27°48' W 082°25'0 0.0
2015-Apr-10 21:31N 27°48' W 082°25'0 0.0
2015-Apr-10 20:31N 27°48' W 082°25'0 0.0
2015-Apr-10 19:31N 27°48' W 082°25'0 0.0
2015-Apr-10 18:28N 27°48' W 082°25'0 0.0
2015-Apr-10 17:28N 27°48' W 082°25'0 0.0
2015-Apr-10 16:31N 27°48' W 082°25'0 0.0
2015-Apr-10 15:28N 27°48' W 082°25'0 0.0
2015-Apr-10 14:28N 27°48' W 082°25'0 0.0
2015-Apr-10 13:28N 27°48' W 082°25'0 0.0
2015-Apr-10 12:31N 27°48' W 082°25'0 0.0
2015-Apr-10 11:31N 27°48' W 082°25'0 0.0
2015-Apr-10 10:31N 27°48' W 082°25'0 0.0
2015-Apr-10 09:31N 27°48' W 082°25'0 0.0
2015-Apr-10 08:28N 27°48' W 082°25'0 0.0
2015-Apr-10 07:28N 27°48' W 082°25'0 0.0
2015-Apr-10 06:28N 27°48' W 082°25'0 0.0
2015-Apr-10 05:31N 27°48' W 082°25'0 0.0
2015-Apr-10 04:31N 27°48' W 082°25'0 0.0
2015-Apr-10 03:31N 27°48' W 082°25'0 0.0
2015-Apr-10 02:22N 27°48' W 082°25'0 0.0
2015-Apr-10 01:31N 27°48' W 082°25'0 0.0
2015-Apr-10 00:31N 27°48' W 082°25'0 0.0
2015-Apr-09 23:28N 27°48' W 082°25'0 0.0
2015-Apr-09 22:31N 27°48' W 082°25'0 0.0
2015-Apr-09 21:28N 27°48' W 082°25'0 0.0
2015-Apr-09 20:28N 27°48' W 082°25'0 0.0
2015-Apr-09 19:22N 27°48' W 082°25'1 0.8
2015-Apr-09 18:33N 27°48' W 082°25'8 7.9
2015-Apr-09 17:33N 27°44' W 082°32'23 4.4
2015-Apr-09 12:26N 27°37' W 082°56'0 0.0
2015-Apr-09 11:05N 27°37' W 082°56'0 0.0
2015-Apr-09 10:29N 27°37' W 082°56'0 0.0
2015-Apr-09 09:14N 27°37' W 082°56'0 0.0
2015-Apr-09 08:08N 27°37' W 082°56'0 0.0
2015-Apr-09 07:11N 27°37' W 082°56'  

Dump ship's entire track history